sensor_id;sensor_type;location;lat;lon;timestamp;P1;durP1;ratioP1;P2;durP2;ratioP2
21424;SDS011;10873;51.132;16.848;2022-09-17T00:00:47;1.42;;;0.85;;
21424;SDS011;10873;51.132;16.848;2022-09-17T00:03:27;0.93;;;0.80;;
21424;SDS011;10873;51.132;16.848;2022-09-17T00:05:57;1.58;;;1.10;;
21424;SDS011;10873;51.132;16.848;2022-09-17T00:08:24;1.35;;;1.00;;
21424;SDS011;10873;51.132;16.848;2022-09-17T00:10:50;1.40;;;1.00;;
21424;SDS011;10873;51.132;16.848;2022-09-17T00:13:17;3.25;;;1.13;;
21424;SDS011;10873;51.132;16.848;2022-09-17T00:15:44;1.08;;;0.90;;
21424;SDS011;10873;51.132;16.848;2022-09-17T00:18:11;2.67;;;1.10;;
21424;SDS011;10873;51.132;16.848;2022-09-17T00:20:39;1.83;;;1.20;;
21424;SDS011;10873;51.132;16.848;2022-09-17T00:23:06;1.45;;;0.80;;
21424;SDS011;10873;51.132;16.848;2022-09-17T00:25:33;1.63;;;0.80;;
21424;SDS011;10873;51.132;16.848;2022-09-17T00:28:02;2.13;;;1.00;;
21424;SDS011;10873;51.132;16.848;2022-09-17T00:30:29;2.50;;;1.15;;
21424;SDS011;10873;51.132;16.848;2022-09-17T00:32:55;2.33;;;1.10;;
21424;SDS011;10873;51.132;16.848;2022-09-17T00:35:22;1.20;;;0.73;;
21424;SDS011;10873;51.132;16.848;2022-09-17T00:37:50;2.67;;;0.98;;
21424;SDS011;10873;51.132;16.848;2022-09-17T00:40:16;1.85;;;1.10;;
21424;SDS011;10873;51.132;16.848;2022-09-17T00:42:43;2.20;;;0.90;;
21424;SDS011;10873;51.132;16.848;2022-09-17T00:45:10;3.22;;;0.90;;
21424;SDS011;10873;51.132;16.848;2022-09-17T00:47:38;1.95;;;0.90;;
21424;SDS011;10873;51.132;16.848;2022-09-17T00:50:06;1.27;;;1.00;;
21424;SDS011;10873;51.132;16.848;2022-09-17T00:52:36;1.65;;;0.75;;
21424;SDS011;10873;51.132;16.848;2022-09-17T00:55:10;1.23;;;0.90;;
21424;SDS011;10873;51.132;16.848;2022-09-17T00:57:40;4.00;;;0.77;;
21424;SDS011;10873;51.132;16.848;2022-09-17T01:00:07;1.40;;;0.80;;
21424;SDS011;10873;51.132;16.848;2022-09-17T01:02:34;1.90;;;1.05;;
21424;SDS011;10873;51.132;16.848;2022-09-17T01:05:01;1.33;;;0.98;;
21424;SDS011;10873;51.132;16.848;2022-09-17T01:07:32;2.47;;;1.00;;
21424;SDS011;10873;51.132;16.848;2022-09-17T01:10:20;2.10;;;0.80;;
21424;SDS011;10873;51.132;16.848;2022-09-17T01:13:02;1.90;;;0.88;;
21424;SDS011;10873;51.132;16.848;2022-09-17T01:15:40;1.35;;;0.80;;
21424;SDS011;10873;51.132;16.848;2022-09-17T01:21:59;0.90;;;0.85;;
21424;SDS011;10873;51.132;16.848;2022-09-17T01:27:34;3.35;;;1.00;;
21424;SDS011;10873;51.132;16.848;2022-09-17T01:30:36;4.65;;;1.00;;
21424;SDS011;10873;51.132;16.848;2022-09-17T01:33:22;1.60;;;0.90;;
21424;SDS011;10873;51.132;16.848;2022-09-17T01:35:55;1.35;;;1.00;;
21424;SDS011;10873;51.132;16.848;2022-09-17T01:38:31;3.28;;;0.80;;
21424;SDS011;10873;51.132;16.848;2022-09-17T01:41:04;2.97;;;0.90;;
21424;SDS011;10873;51.132;16.848;2022-09-17T01:43:37;1.90;;;0.98;;
21424;SDS011;10873;51.132;16.848;2022-09-17T01:46:12;0.93;;;0.70;;
21424;SDS011;10873;51.132;16.848;2022-09-17T01:48:43;1.27;;;0.73;;
21424;SDS011;10873;51.132;16.848;2022-09-17T01:51:13;1.85;;;0.90;;
21424;SDS011;10873;51.132;16.848;2022-09-17T01:53:43;2.53;;;0.80;;
21424;SDS011;10873;51.132;16.848;2022-09-17T01:56:17;1.10;;;0.70;;
21424;SDS011;10873;51.132;16.848;2022-09-17T01:58:49;1.20;;;0.90;;
21424;SDS011;10873;51.132;16.848;2022-09-17T02:01:21;2.58;;;0.90;;
21424;SDS011;10873;51.132;16.848;2022-09-17T02:03:51;1.98;;;0.90;;
21424;SDS011;10873;51.132;16.848;2022-09-17T02:06:25;2.03;;;0.75;;
21424;SDS011;10873;51.132;16.848;2022-09-17T02:08:56;1.30;;;0.70;;
21424;SDS011;10873;51.132;16.848;2022-09-17T02:11:25;2.05;;;1.00;;
21424;SDS011;10873;51.132;16.848;2022-09-17T02:13:52;2.08;;;0.90;;
21424;SDS011;10873;51.132;16.848;2022-09-17T02:16:25;1.20;;;0.70;;
21424;SDS011;10873;51.132;16.848;2022-09-17T02:18:53;4.45;;;0.90;;
21424;SDS011;10873;51.132;16.848;2022-09-17T02:21:25;0.80;;;0.60;;
21424;SDS011;10873;51.132;16.848;2022-09-17T02:23:57;1.45;;;0.90;;
21424;SDS011;10873;51.132;16.848;2022-09-17T02:26:29;2.92;;;0.90;;
21424;SDS011;10873;51.132;16.848;2022-09-17T02:29:00;1.42;;;0.80;;
21424;SDS011;10873;51.132;16.848;2022-09-17T02:31:33;3.67;;;0.80;;
21424;SDS011;10873;51.132;16.848;2022-09-17T02:34:00;1.33;;;0.90;;
21424;SDS011;10873;51.132;16.848;2022-09-17T02:36:28;1.70;;;0.70;;
21424;SDS011;10873;51.132;16.848;2022-09-17T02:38:57;2.00;;;0.60;;
21424;SDS011;10873;51.132;16.848;2022-09-17T02:41:31;3.35;;;0.90;;
21424;SDS011;10873;51.132;16.848;2022-09-17T02:44:08;1.33;;;0.82;;
21424;SDS011;10873;51.132;16.848;2022-09-17T02:46:49;1.30;;;0.75;;
21424;SDS011;10873;51.132;16.848;2022-09-17T02:49:28;1.27;;;0.70;;
21424;SDS011;10873;51.132;16.848;2022-09-17T02:52:06;3.33;;;0.80;;
21424;SDS011;10873;51.132;16.848;2022-09-17T02:54:41;1.10;;;0.82;;
21424;SDS011;10873;51.132;16.848;2022-09-17T02:57:18;1.33;;;0.70;;
21424;SDS011;10873;51.132;16.848;2022-09-17T02:59:50;0.98;;;0.68;;
21424;SDS011;10873;51.132;16.848;2022-09-17T03:02:23;2.17;;;0.82;;
21424;SDS011;10873;51.132;16.848;2022-09-17T03:04:53;3.40;;;0.73;;
21424;SDS011;10873;51.132;16.848;2022-09-17T03:07:20;1.88;;;0.88;;
21424;SDS011;10873;51.132;16.848;2022-09-17T03:09:47;2.55;;;0.70;;
21424;SDS011;10873;51.132;16.848;2022-09-17T03:12:14;1.58;;;0.73;;
21424;SDS011;10873;51.132;16.848;2022-09-17T03:14:40;1.17;;;0.70;;
21424;SDS011;10873;51.132;16.848;2022-09-17T03:17:07;1.88;;;0.90;;
21424;SDS011;10873;51.132;16.848;2022-09-17T03:19:34;1.58;;;0.65;;
21424;SDS011;10873;51.132;16.848;2022-09-17T03:22:00;1.75;;;0.80;;
21424;SDS011;10873;51.132;16.848;2022-09-17T03:24:27;2.00;;;0.80;;
21424;SDS011;10873;51.132;16.848;2022-09-17T03:26:53;1.80;;;0.80;;
21424;SDS011;10873;51.132;16.848;2022-09-17T03:29:19;1.55;;;0.90;;
21424;SDS011;10873;51.132;16.848;2022-09-17T03:31:45;1.40;;;0.60;;
21424;SDS011;10873;51.132;16.848;2022-09-17T03:34:11;1.80;;;0.82;;
21424;SDS011;10873;51.132;16.848;2022-09-17T03:36:39;3.90;;;0.70;;
21424;SDS011;10873;51.132;16.848;2022-09-17T03:39:05;2.60;;;0.73;;
21424;SDS011;10873;51.132;16.848;2022-09-17T03:41:31;1.67;;;0.80;;
21424;SDS011;10873;51.132;16.848;2022-09-17T03:43:58;1.15;;;0.60;;
21424;SDS011;10873;51.132;16.848;2022-09-17T03:46:24;1.17;;;0.68;;
21424;SDS011;10873;51.132;16.848;2022-09-17T03:48:50;2.30;;;0.77;;
21424;SDS011;10873;51.132;16.848;2022-09-17T03:51:16;1.15;;;0.60;;
21424;SDS011;10873;51.132;16.848;2022-09-17T03:53:43;2.00;;;0.57;;
21424;SDS011;10873;51.132;16.848;2022-09-17T03:56:09;1.38;;;0.73;;
21424;SDS011;10873;51.132;16.848;2022-09-17T03:58:35;0.60;;;0.60;;
21424;SDS011;10873;51.132;16.848;2022-09-17T04:01:03;1.65;;;0.82;;
21424;SDS011;10873;51.132;16.848;2022-09-17T04:03:29;3.58;;;0.73;;
21424;SDS011;10873;51.132;16.848;2022-09-17T04:05:55;1.42;;;0.80;;
21424;SDS011;10873;51.132;16.848;2022-09-17T04:08:22;1.48;;;0.65;;
21424;SDS011;10873;51.132;16.848;2022-09-17T04:10:50;0.93;;;0.70;;
21424;SDS011;10873;51.132;16.848;2022-09-17T04:13:16;1.98;;;0.70;;
21424;SDS011;10873;51.132;16.848;2022-09-17T04:15:43;4.47;;;0.70;;
21424;SDS011;10873;51.132;16.848;2022-09-17T04:18:10;1.08;;;0.60;;
21424;SDS011;10873;51.132;16.848;2022-09-17T04:20:36;2.17;;;0.98;;
21424;SDS011;10873;51.132;16.848;2022-09-17T04:23:03;1.92;;;0.65;;
21424;SDS011;10873;51.132;16.848;2022-09-17T04:25:29;3.38;;;0.95;;
21424;SDS011;10873;51.132;16.848;2022-09-17T04:27:56;2.38;;;0.82;;
21424;SDS011;10873;51.132;16.848;2022-09-17T04:30:22;0.70;;;0.68;;
21424;SDS011;10873;51.132;16.848;2022-09-17T04:32:48;1.40;;;0.73;;
21424;SDS011;10873;51.132;16.848;2022-09-17T04:35:15;3.20;;;0.70;;
21424;SDS011;10873;51.132;16.848;2022-09-17T04:37:41;1.65;;;0.85;;
21424;SDS011;10873;51.132;16.848;2022-09-17T04:40:07;1.67;;;0.68;;
21424;SDS011;10873;51.132;16.848;2022-09-17T04:42:34;4.45;;;0.63;;
21424;SDS011;10873;51.132;16.848;2022-09-17T04:45:02;1.80;;;0.75;;
21424;SDS011;10873;51.132;16.848;2022-09-17T04:47:28;1.75;;;0.80;;
21424;SDS011;10873;51.132;16.848;2022-09-17T04:49:54;2.45;;;0.90;;
21424;SDS011;10873;51.132;16.848;2022-09-17T04:52:20;2.97;;;0.80;;
21424;SDS011;10873;51.132;16.848;2022-09-17T04:54:46;2.08;;;0.88;;
21424;SDS011;10873;51.132;16.848;2022-09-17T04:57:12;4.13;;;0.68;;
21424;SDS011;10873;51.132;16.848;2022-09-17T04:59:38;1.67;;;0.70;;
21424;SDS011;10873;51.132;16.848;2022-09-17T05:02:06;1.58;;;0.70;;
21424;SDS011;10873;51.132;16.848;2022-09-17T05:04:32;3.08;;;1.00;;
21424;SDS011;10873;51.132;16.848;2022-09-17T05:06:58;5.13;;;0.70;;
21424;SDS011;10873;51.132;16.848;2022-09-17T05:09:24;2.22;;;0.80;;
21424;SDS011;10873;51.132;16.848;2022-09-17T05:11:51;2.42;;;0.77;;
21424;SDS011;10873;51.132;16.848;2022-09-17T05:14:17;2.15;;;0.85;;
21424;SDS011;10873;51.132;16.848;2022-09-17T05:16:43;3.38;;;0.90;;
21424;SDS011;10873;51.132;16.848;2022-09-17T05:19:10;6.05;;;1.05;;
21424;SDS011;10873;51.132;16.848;2022-09-17T05:21:36;3.55;;;0.80;;
21424;SDS011;10873;51.132;16.848;2022-09-17T05:24:03;3.28;;;1.10;;
21424;SDS011;10873;51.132;16.848;2022-09-17T05:26:29;4.38;;;1.10;;
21424;SDS011;10873;51.132;16.848;2022-09-17T05:28:55;4.60;;;1.35;;
21424;SDS011;10873;51.132;16.848;2022-09-17T05:31:21;4.82;;;1.08;;
21424;SDS011;10873;51.132;16.848;2022-09-17T05:33:47;2.60;;;0.98;;
21424;SDS011;10873;51.132;16.848;2022-09-17T05:36:15;4.13;;;1.02;;
21424;SDS011;10873;51.132;16.848;2022-09-17T05:38:41;2.60;;;1.10;;
21424;SDS011;10873;51.132;16.848;2022-09-17T05:41:07;2.80;;;1.20;;
21424;SDS011;10873;51.132;16.848;2022-09-17T05:43:33;3.97;;;1.15;;
21424;SDS011;10873;51.132;16.848;2022-09-17T05:46:00;4.15;;;1.08;;
21424;SDS011;10873;51.132;16.848;2022-09-17T05:48:27;24.60;;;2.15;;
21424;SDS011;10873;51.132;16.848;2022-09-17T05:50:53;10.68;;;2.20;;
21424;SDS011;10873;51.132;16.848;2022-09-17T05:53:21;11.68;;;1.92;;
21424;SDS011;10873;51.132;16.848;2022-09-17T05:55:48;13.55;;;2.30;;
21424;SDS011;10873;51.132;16.848;2022-09-17T05:58:14;6.47;;;1.50;;
21424;SDS011;10873;51.132;16.848;2022-09-17T06:00:41;9.85;;;1.30;;
21424;SDS011;10873;51.132;16.848;2022-09-17T06:03:08;5.47;;;1.40;;
21424;SDS011;10873;51.132;16.848;2022-09-17T06:05:36;8.55;;;1.27;;
21424;SDS011;10873;51.132;16.848;2022-09-17T06:08:02;6.82;;;1.65;;
21424;SDS011;10873;51.132;16.848;2022-09-17T06:10:31;6.05;;;1.77;;
21424;SDS011;10873;51.132;16.848;2022-09-17T06:12:57;5.90;;;1.35;;
21424;SDS011;10873;51.132;16.848;2022-09-17T06:15:24;5.65;;;1.52;;
21424;SDS011;10873;51.132;16.848;2022-09-17T06:17:50;5.93;;;1.40;;
21424;SDS011;10873;51.132;16.848;2022-09-17T06:20:17;3.60;;;1.27;;
21424;SDS011;10873;51.132;16.848;2022-09-17T06:22:43;4.30;;;1.50;;
21424;SDS011;10873;51.132;16.848;2022-09-17T06:25:09;8.88;;;1.65;;
21424;SDS011;10873;51.132;16.848;2022-09-17T06:27:38;5.35;;;1.42;;
21424;SDS011;10873;51.132;16.848;2022-09-17T06:30:04;4.20;;;1.33;;
21424;SDS011;10873;51.132;16.848;2022-09-17T06:32:31;3.53;;;1.48;;
21424;SDS011;10873;51.132;16.848;2022-09-17T06:34:58;7.40;;;1.50;;
21424;SDS011;10873;51.132;16.848;2022-09-17T06:37:26;3.10;;;1.20;;
21424;SDS011;10873;51.132;16.848;2022-09-17T06:39:53;5.45;;;1.60;;
21424;SDS011;10873;51.132;16.848;2022-09-17T06:42:19;5.43;;;1.83;;
21424;SDS011;10873;51.132;16.848;2022-09-17T06:44:46;3.30;;;1.40;;
21424;SDS011;10873;51.132;16.848;2022-09-17T06:47:12;5.53;;;1.58;;
21424;SDS011;10873;51.132;16.848;2022-09-17T06:49:39;4.35;;;1.70;;
21424;SDS011;10873;51.132;16.848;2022-09-17T06:52:05;3.75;;;1.48;;
21424;SDS011;10873;51.132;16.848;2022-09-17T06:54:31;8.27;;;1.55;;
21424;SDS011;10873;51.132;16.848;2022-09-17T06:56:57;4.45;;;1.77;;
21424;SDS011;10873;51.132;16.848;2022-09-17T06:59:23;4.38;;;2.25;;
21424;SDS011;10873;51.132;16.848;2022-09-17T07:01:52;7.75;;;2.45;;
21424;SDS011;10873;51.132;16.848;2022-09-17T07:04:18;8.38;;;2.33;;
21424;SDS011;10873;51.132;16.848;2022-09-17T07:06:44;4.95;;;2.00;;
21424;SDS011;10873;51.132;16.848;2022-09-17T07:09:10;10.75;;;2.58;;
21424;SDS011;10873;51.132;16.848;2022-09-17T07:11:37;6.70;;;3.17;;
21424;SDS011;10873;51.132;16.848;2022-09-17T07:14:03;9.50;;;2.80;;
21424;SDS011;10873;51.132;16.848;2022-09-17T07:16:31;6.90;;;2.45;;
21424;SDS011;10873;51.132;16.848;2022-09-17T07:19:01;6.90;;;2.50;;
21424;SDS011;10873;51.132;16.848;2022-09-17T07:21:28;9.32;;;2.72;;
21424;SDS011;10873;51.132;16.848;2022-09-17T07:23:54;10.82;;;2.85;;
21424;SDS011;10873;51.132;16.848;2022-09-17T07:26:20;6.15;;;2.90;;
21424;SDS011;10873;51.132;16.848;2022-09-17T07:28:47;8.63;;;3.28;;
21424;SDS011;10873;51.132;16.848;2022-09-17T07:31:13;6.53;;;2.67;;
21424;SDS011;10873;51.132;16.848;2022-09-17T07:33:39;10.32;;;2.50;;
21424;SDS011;10873;51.132;16.848;2022-09-17T07:36:09;6.00;;;2.08;;
21424;SDS011;10873;51.132;16.848;2022-09-17T07:38:36;6.97;;;2.38;;
21424;SDS011;10873;51.132;16.848;2022-09-17T07:41:04;10.20;;;3.05;;
21424;SDS011;10873;51.132;16.848;2022-09-17T07:43:32;10.57;;;4.90;;
21424;SDS011;10873;51.132;16.848;2022-09-17T07:46:00;10.90;;;5.93;;
21424;SDS011;10873;51.132;16.848;2022-09-17T07:48:28;11.55;;;7.20;;
21424;SDS011;10873;51.132;16.848;2022-09-17T07:50:55;10.20;;;5.40;;
21424;SDS011;10873;51.132;16.848;2022-09-17T07:53:23;9.98;;;4.80;;
21424;SDS011;10873;51.132;16.848;2022-09-17T07:55:50;8.20;;;4.15;;
21424;SDS011;10873;51.132;16.848;2022-09-17T07:58:16;9.00;;;3.85;;
21424;SDS011;10873;51.132;16.848;2022-09-17T08:00:43;9.73;;;3.53;;
21424;SDS011;10873;51.132;16.848;2022-09-17T08:03:09;7.28;;;3.08;;
21424;SDS011;10873;51.132;16.848;2022-09-17T08:05:35;10.50;;;6.55;;
21424;SDS011;10873;51.132;16.848;2022-09-17T08:08:01;7.57;;;4.07;;
21424;SDS011;10873;51.132;16.848;2022-09-17T08:10:29;5.65;;;3.50;;
21424;SDS011;10873;51.132;16.848;2022-09-17T08:12:56;8.00;;;3.40;;
21424;SDS011;10873;51.132;16.848;2022-09-17T08:15:23;4.85;;;2.90;;
21424;SDS011;10873;51.132;16.848;2022-09-17T08:17:50;4.68;;;2.47;;
21424;SDS011;10873;51.132;16.848;2022-09-17T08:20:17;9.38;;;2.50;;
21424;SDS011;10873;51.132;16.848;2022-09-17T08:22:44;4.90;;;2.25;;
21424;SDS011;10873;51.132;16.848;2022-09-17T08:25:10;4.25;;;2.40;;
21424;SDS011;10873;51.132;16.848;2022-09-17T08:27:37;4.68;;;2.00;;
21424;SDS011;10873;51.132;16.848;2022-09-17T08:30:04;7.57;;;1.83;;
21424;SDS011;10873;51.132;16.848;2022-09-17T08:32:31;4.43;;;2.08;;
21424;SDS011;10873;51.132;16.848;2022-09-17T08:34:58;7.90;;;2.50;;
21424;SDS011;10873;51.132;16.848;2022-09-17T08:37:24;5.22;;;1.90;;
21424;SDS011;10873;51.132;16.848;2022-09-17T08:39:50;4.93;;;1.75;;
21424;SDS011;10873;51.132;16.848;2022-09-17T08:42:18;62.75;;;4.85;;
21424;SDS011;10873;51.132;16.848;2022-09-17T08:44:50;54.17;;;4.40;;
21424;SDS011;10873;51.132;16.848;2022-09-17T08:47:21;44.67;;;3.67;;
21424;SDS011;10873;51.132;16.848;2022-09-17T08:49:51;25.73;;;3.72;;
21424;SDS011;10873;51.132;16.848;2022-09-17T08:55:25;19.80;;;2.58;;
21424;SDS011;10873;51.132;16.848;2022-09-17T08:58:03;17.13;;;2.58;;
21424;SDS011;10873;51.132;16.848;2022-09-17T09:00:48;14.38;;;2.90;;
21424;SDS011;10873;51.132;16.848;2022-09-17T09:03:24;10.82;;;2.28;;
21424;SDS011;10873;51.132;16.848;2022-09-17T09:06:01;10.48;;;2.45;;
21424;SDS011;10873;51.132;16.848;2022-09-17T09:08:29;12.23;;;2.40;;
21424;SDS011;10873;51.132;16.848;2022-09-17T09:11:00;10.07;;;2.35;;
21424;SDS011;10873;51.132;16.848;2022-09-17T09:13:29;10.48;;;2.00;;
21424;SDS011;10873;51.132;16.848;2022-09-17T09:16:00;6.47;;;1.92;;
21424;SDS011;10873;51.132;16.848;2022-09-17T09:18:30;5.93;;;2.03;;
21424;SDS011;10873;51.132;16.848;2022-09-17T09:21:02;7.82;;;2.28;;
21424;SDS011;10873;51.132;16.848;2022-09-17T09:23:40;5.30;;;1.80;;
21424;SDS011;10873;51.132;16.848;2022-09-17T09:26:14;10.50;;;2.00;;
21424;SDS011;10873;51.132;16.848;2022-09-17T09:29:01;7.63;;;2.17;;
21424;SDS011;10873;51.132;16.848;2022-09-17T09:31:36;10.45;;;2.55;;
21424;SDS011;10873;51.132;16.848;2022-09-17T09:34:25;8.68;;;2.20;;
21424;SDS011;10873;51.132;16.848;2022-09-17T09:36:53;7.45;;;2.05;;
21424;SDS011;10873;51.132;16.848;2022-09-17T09:39:27;5.57;;;2.22;;
21424;SDS011;10873;51.132;16.848;2022-09-17T09:42:00;6.78;;;2.42;;
21424;SDS011;10873;51.132;16.848;2022-09-17T09:44:30;6.60;;;2.20;;
21424;SDS011;10873;51.132;16.848;2022-09-17T09:47:09;5.95;;;2.72;;
21424;SDS011;10873;51.132;16.848;2022-09-17T09:49:54;10.63;;;3.25;;
21424;SDS011;10873;51.132;16.848;2022-09-17T09:52:40;15.35;;;3.22;;
21424;SDS011;10873;51.132;16.848;2022-09-17T09:55:19;10.40;;;2.97;;
21424;SDS011;10873;51.132;16.848;2022-09-17T09:57:58;10.85;;;2.92;;
21424;SDS011;10873;51.132;16.848;2022-09-17T10:00:34;8.85;;;2.90;;
21424;SDS011;10873;51.132;16.848;2022-09-17T10:03:03;10.07;;;3.53;;
21424;SDS011;10873;51.132;16.848;2022-09-17T10:05:39;7.35;;;2.60;;
21424;SDS011;10873;51.132;16.848;2022-09-17T10:08:16;7.97;;;2.75;;
21424;SDS011;10873;51.132;16.848;2022-09-17T10:10:52;9.88;;;3.47;;
21424;SDS011;10873;51.132;16.848;2022-09-17T10:13:20;9.50;;;2.70;;
21424;SDS011;10873;51.132;16.848;2022-09-17T10:15:46;8.40;;;3.13;;
21424;SDS011;10873;51.132;16.848;2022-09-17T10:18:17;8.50;;;3.20;;
21424;SDS011;10873;51.132;16.848;2022-09-17T10:20:57;5.28;;;2.55;;
21424;SDS011;10873;51.132;16.848;2022-09-17T10:23:25;4.72;;;2.47;;
21424;SDS011;10873;51.132;16.848;2022-09-17T10:25:53;7.82;;;2.50;;
21424;SDS011;10873;51.132;16.848;2022-09-17T10:28:22;5.90;;;2.15;;
21424;SDS011;10873;51.132;16.848;2022-09-17T10:31:00;3.42;;;2.13;;
21424;SDS011;10873;51.132;16.848;2022-09-17T10:33:30;9.10;;;3.20;;
21424;SDS011;10873;51.132;16.848;2022-09-17T10:35:59;11.10;;;3.50;;
21424;SDS011;10873;51.132;16.848;2022-09-17T10:38:30;10.10;;;4.63;;
21424;SDS011;10873;51.132;16.848;2022-09-17T10:41:11;11.82;;;4.80;;
21424;SDS011;10873;51.132;16.848;2022-09-17T10:43:42;15.30;;;5.20;;
21424;SDS011;10873;51.132;16.848;2022-09-17T10:46:10;8.95;;;4.10;;
21424;SDS011;10873;51.132;16.848;2022-09-17T10:48:41;9.60;;;3.58;;
21424;SDS011;10873;51.132;16.848;2022-09-17T10:51:10;7.85;;;3.20;;
21424;SDS011;10873;51.132;16.848;2022-09-17T10:56:51;7.57;;;2.85;;
21424;SDS011;10873;51.132;16.848;2022-09-17T10:59:28;8.65;;;3.00;;
21424;SDS011;10873;51.132;16.848;2022-09-17T11:02:10;5.18;;;2.28;;
21424;SDS011;10873;51.132;16.848;2022-09-17T11:05:19;3.53;;;1.90;;
21424;SDS011;10873;51.132;16.848;2022-09-17T11:07:56;6.13;;;2.05;;
21424;SDS011;10873;51.132;16.848;2022-09-17T11:10:32;5.82;;;1.95;;
21424;SDS011;10873;51.132;16.848;2022-09-17T11:13:09;5.00;;;1.90;;
21424;SDS011;10873;51.132;16.848;2022-09-17T11:15:43;7.20;;;1.75;;
21424;SDS011;10873;51.132;16.848;2022-09-17T11:18:28;5.10;;;1.75;;
21424;SDS011;10873;51.132;16.848;2022-09-17T11:21:12;2.88;;;1.50;;
21424;SDS011;10873;51.132;16.848;2022-09-17T11:24:05;4.22;;;1.40;;
21424;SDS011;10873;51.132;16.848;2022-09-17T11:26:45;3.83;;;1.60;;
21424;SDS011;10873;51.132;16.848;2022-09-17T11:29:23;3.70;;;1.60;;
21424;SDS011;10873;51.132;16.848;2022-09-17T11:32:03;3.50;;;1.50;;
21424;SDS011;10873;51.132;16.848;2022-09-17T11:34:36;3.75;;;1.30;;
21424;SDS011;10873;51.132;16.848;2022-09-17T11:37:09;2.08;;;1.20;;
21424;SDS011;10873;51.132;16.848;2022-09-17T11:39:40;8.20;;;1.60;;
21424;SDS011;10873;51.132;16.848;2022-09-17T11:42:12;3.38;;;1.33;;
21424;SDS011;10873;51.132;16.848;2022-09-17T11:44:43;2.67;;;1.15;;
21424;SDS011;10873;51.132;16.848;2022-09-17T11:47:17;3.00;;;1.00;;
21424;SDS011;10873;51.132;16.848;2022-09-17T11:49:47;2.13;;;1.20;;
21424;SDS011;10873;51.132;16.848;2022-09-17T11:52:20;5.28;;;1.10;;
21424;SDS011;10873;51.132;16.848;2022-09-17T11:54:50;3.65;;;1.20;;
21424;SDS011;10873;51.132;16.848;2022-09-17T11:57:20;2.28;;;0.90;;
21424;SDS011;10873;51.132;16.848;2022-09-17T11:59:51;2.58;;;0.77;;
21424;SDS011;10873;51.132;16.848;2022-09-17T12:02:21;14.75;;;2.90;;
21424;SDS011;10873;51.132;16.848;2022-09-17T12:04:56;14.55;;;1.95;;
21424;SDS011;10873;51.132;16.848;2022-09-17T12:07:38;19.13;;;2.58;;
21424;SDS011;10873;51.132;16.848;2022-09-17T12:10:21;16.02;;;2.45;;
21424;SDS011;10873;51.132;16.848;2022-09-17T12:12:58;16.83;;;2.10;;
21424;SDS011;10873;51.132;16.848;2022-09-17T12:15:32;9.30;;;1.55;;
21424;SDS011;10873;51.132;16.848;2022-09-17T12:18:02;10.05;;;2.00;;
21424;SDS011;10873;51.132;16.848;2022-09-17T12:20:44;7.65;;;1.63;;
21424;SDS011;10873;51.132;16.848;2022-09-17T12:23:14;9.20;;;1.40;;
21424;SDS011;10873;51.132;16.848;2022-09-17T12:25:47;4.43;;;1.30;;
21424;SDS011;10873;51.132;16.848;2022-09-17T12:28:18;11.40;;;1.40;;
21424;SDS011;10873;51.132;16.848;2022-09-17T12:30:51;2.90;;;1.30;;
21424;SDS011;10873;51.132;16.848;2022-09-17T12:33:23;5.93;;;1.30;;
21424;SDS011;10873;51.132;16.848;2022-09-17T12:36:02;5.28;;;1.00;;
21424;SDS011;10873;51.132;16.848;2022-09-17T12:38:54;6.22;;;1.30;;
21424;SDS011;10873;51.132;16.848;2022-09-17T12:41:32;4.18;;;1.00;;
21424;SDS011;10873;51.132;16.848;2022-09-17T12:44:13;2.35;;;1.23;;
21424;SDS011;10873;51.132;16.848;2022-09-17T12:46:53;5.28;;;1.80;;
21424;SDS011;10873;51.132;16.848;2022-09-17T12:49:37;4.72;;;1.25;;
21424;SDS011;10873;51.132;16.848;2022-09-17T12:52:25;3.90;;;1.10;;
21424;SDS011;10873;51.132;16.848;2022-09-17T12:55:13;5.57;;;1.30;;
21424;SDS011;10873;51.132;16.848;2022-09-17T12:57:55;9.73;;;1.85;;
21424;SDS011;10873;51.132;16.848;2022-09-17T13:00:29;7.28;;;1.45;;
21424;SDS011;10873;51.132;16.848;2022-09-17T13:03:02;4.10;;;1.23;;
21424;SDS011;10873;51.132;16.848;2022-09-17T13:05:40;4.55;;;1.45;;
21424;SDS011;10873;51.132;16.848;2022-09-17T13:08:18;5.05;;;1.20;;
21424;SDS011;10873;51.132;16.848;2022-09-17T13:11:16;4.93;;;1.48;;
21424;SDS011;10873;51.132;16.848;2022-09-17T13:14:09;5.53;;;1.60;;
21424;SDS011;10873;51.132;16.848;2022-09-17T13:16:45;5.85;;;1.35;;
21424;SDS011;10873;51.132;16.848;2022-09-17T13:19:20;5.95;;;2.10;;
21424;SDS011;10873;51.132;16.848;2022-09-17T13:21:54;3.67;;;1.90;;
21424;SDS011;10873;51.132;16.848;2022-09-17T13:24:26;7.45;;;1.90;;
21424;SDS011;10873;51.132;16.848;2022-09-17T13:26:57;4.47;;;1.30;;
21424;SDS011;10873;51.132;16.848;2022-09-17T13:38:25;6.25;;;1.77;;
21424;SDS011;10873;51.132;16.848;2022-09-17T13:41:16;4.85;;;1.30;;
21424;SDS011;10873;51.132;16.848;2022-09-17T13:43:46;5.15;;;1.30;;
21424;SDS011;10873;51.132;16.848;2022-09-17T13:46:15;2.83;;;1.20;;
21424;SDS011;10873;51.132;16.848;2022-09-17T13:48:49;5.03;;;1.60;;
21424;SDS011;10873;51.132;16.848;2022-09-17T13:54:12;6.60;;;2.75;;
21424;SDS011;10873;51.132;16.848;2022-09-17T13:56:41;5.45;;;3.00;;
21424;SDS011;10873;51.132;16.848;2022-09-17T13:59:12;6.10;;;2.40;;
21424;SDS011;10873;51.132;16.848;2022-09-17T14:01:58;9.13;;;1.80;;
21424;SDS011;10873;51.132;16.848;2022-09-17T14:04:45;3.15;;;1.20;;
21424;SDS011;10873;51.132;16.848;2022-09-17T14:07:32;4.47;;;1.83;;
21424;SDS011;10873;51.132;16.848;2022-09-17T14:09:59;11.13;;;1.95;;
21424;SDS011;10873;51.132;16.848;2022-09-17T14:12:53;12.80;;;1.98;;
21424;SDS011;10873;51.132;16.848;2022-09-17T14:15:52;6.75;;;1.60;;
21424;SDS011;10873;51.132;16.848;2022-09-17T14:18:36;3.78;;;1.10;;
21424;SDS011;10873;51.132;16.848;2022-09-17T14:21:11;5.68;;;1.05;;
21424;SDS011;10873;51.132;16.848;2022-09-17T14:23:51;6.00;;;1.23;;
21424;SDS011;10873;51.132;16.848;2022-09-17T14:26:24;4.45;;;1.20;;
21424;SDS011;10873;51.132;16.848;2022-09-17T14:29:12;4.95;;;1.17;;
21424;SDS011;10873;51.132;16.848;2022-09-17T14:31:49;6.45;;;1.50;;
21424;SDS011;10873;51.132;16.848;2022-09-17T14:34:17;5.88;;;1.50;;
21424;SDS011;10873;51.132;16.848;2022-09-17T14:36:46;4.85;;;1.25;;
21424;SDS011;10873;51.132;16.848;2022-09-17T14:39:16;3.88;;;1.02;;
21424;SDS011;10873;51.132;16.848;2022-09-17T14:41:46;6.43;;;1.02;;
21424;SDS011;10873;51.132;16.848;2022-09-17T14:44:17;2.75;;;0.98;;
21424;SDS011;10873;51.132;16.848;2022-09-17T14:46:47;6.95;;;1.20;;
21424;SDS011;10873;51.132;16.848;2022-09-17T14:49:20;7.30;;;1.10;;
21424;SDS011;10873;51.132;16.848;2022-09-17T14:51:47;5.18;;;1.45;;
21424;SDS011;10873;51.132;16.848;2022-09-17T14:54:15;6.35;;;1.65;;
21424;SDS011;10873;51.132;16.848;2022-09-17T14:56:44;6.00;;;1.48;;
21424;SDS011;10873;51.132;16.848;2022-09-17T14:59:17;5.25;;;1.30;;
21424;SDS011;10873;51.132;16.848;2022-09-17T15:02:17;3.53;;;1.27;;
21424;SDS011;10873;51.132;16.848;2022-09-17T15:04:54;6.38;;;1.52;;
21424;SDS011;10873;51.132;16.848;2022-09-17T15:07:21;5.28;;;1.17;;
21424;SDS011;10873;51.132;16.848;2022-09-17T15:09:48;4.03;;;1.38;;
21424;SDS011;10873;51.132;16.848;2022-09-17T15:12:17;3.08;;;0.90;;
21424;SDS011;10873;51.132;16.848;2022-09-17T15:14:47;7.25;;;1.25;;
21424;SDS011;10873;51.132;16.848;2022-09-17T15:17:16;3.55;;;1.27;;
21424;SDS011;10873;51.132;16.848;2022-09-17T15:19:47;5.18;;;1.40;;
21424;SDS011;10873;51.132;16.848;2022-09-17T15:22:17;5.25;;;1.00;;